sensor_id;sensor_type;location;lat;lon;timestamp;pressure;altitude;pressure_sealevel;temperature;humidity
25430;BME280;13360;48.152;-1.788;2023-04-01T00:01:57;101555.69;;;12.35;100.00
25430;BME280;13360;48.152;-1.788;2023-04-01T00:04:22;101548.31;;;12.20;100.00
25430;BME280;13360;48.152;-1.788;2023-04-01T00:06:48;101568.75;;;12.24;100.00
25430;BME280;13360;48.152;-1.788;2023-04-01T00:09:14;101574.97;;;12.11;100.00
25430;BME280;13360;48.152;-1.788;2023-04-01T00:11:40;101618.09;;;12.22;100.00
25430;BME280;13360;48.152;-1.788;2023-04-01T00:14:06;101605.09;;;12.17;100.00
25430;BME280;13360;48.152;-1.788;2023-04-01T00:16:32;101611.44;;;12.23;100.00
25430;BME280;13360;48.152;-1.788;2023-04-01T00:18:58;101610.59;;;12.23;100.00
25430;BME280;13360;48.152;-1.788;2023-04-01T00:21:23;101594.84;;;12.18;100.00
25430;BME280;13360;48.152;-1.788;2023-04-01T00:23:50;101590.13;;;12.18;100.00
25430;BME280;13360;48.152;-1.788;2023-04-01T00:26:16;101581.88;;;12.13;100.00
25430;BME280;13360;48.152;-1.788;2023-04-01T00:28:44;101580.22;;;12.12;100.00
25430;BME280;13360;48.152;-1.788;2023-04-01T00:31:10;101574.69;;;12.12;100.00
25430;BME280;13360;48.152;-1.788;2023-04-01T00:33:36;101576.88;;;12.15;100.00
25430;BME280;13360;48.152;-1.788;2023-04-01T00:36:07;101557.56;;;12.00;100.00
25430;BME280;13360;48.152;-1.788;2023-04-01T00:38:33;101573.94;;;11.97;100.00
25430;BME280;13360;48.152;-1.788;2023-04-01T00:40:59;101604.91;;;12.04;100.00
25430;BME280;13360;48.152;-1.788;2023-04-01T00:43:24;101620.38;;;12.05;100.00
25430;BME280;13360;48.152;-1.788;2023-04-01T00:45:50;101658.81;;;12.21;100.00
25430;BME280;13360;48.152;-1.788;2023-04-01T00:48:26;101657.16;;;12.20;100.00
25430;BME280;13360;48.152;-1.788;2023-04-01T00:51:14;101668.75;;;12.23;100.00
25430;BME280;13360;48.152;-1.788;2023-04-01T00:53:44;101661.63;;;12.11;100.00
25430;BME280;13360;48.152;-1.788;2023-04-01T00:56:13;101686.50;;;12.21;100.00
25430;BME280;13360;48.152;-1.788;2023-04-01T00:58:45;101683.72;;;12.21;100.00
25430;BME280;13360;48.152;-1.788;2023-04-01T01:01:11;101690.09;;;12.22;100.00
25430;BME280;13360;48.152;-1.788;2023-04-01T01:03:37;101688.72;;;12.19;100.00
25430;BME280;13360;48.152;-1.788;2023-04-01T01:06:14;101673.84;;;12.10;100.00
25430;BME280;13360;48.152;-1.788;2023-04-01T01:12:16;101700.97;;;12.08;100.00
25430;BME280;13360;48.152;-1.788;2023-04-01T01:25:46;101700.13;;;12.13;100.00
25430;BME280;13360;48.152;-1.788;2023-04-01T01:31:15;101690.72;;;12.09;100.00
25430;BME280;13360;48.152;-1.788;2023-04-01T01:36:15;101679.91;;;12.12;100.00
25430;BME280;13360;48.152;-1.788;2023-04-01T01:38:41;101654.72;;;12.04;100.00
25430;BME280;13360;48.152;-1.788;2023-04-01T01:41:08;101652.22;;;12.12;100.00
25430;BME280;13360;48.152;-1.788;2023-04-01T01:43:43;101629.25;;;12.07;100.00
25430;BME280;13360;48.152;-1.788;2023-04-01T01:46:14;101628.97;;;12.08;100.00
25430;BME280;13360;48.152;-1.788;2023-04-01T01:48:42;101616.22;;;12.07;100.00
25430;BME280;13360;48.152;-1.788;2023-04-01T01:51:09;101591.34;;;12.02;100.00
25430;BME280;13360;48.152;-1.788;2023-04-01T01:53:34;101605.81;;;11.89;100.00
25430;BME280;13360;48.152;-1.788;2023-04-01T01:56:01;101616.31;;;11.92;100.00
25430;BME280;13360;48.152;-1.788;2023-04-01T01:58:32;101621.28;;;11.95;100.00
25430;BME280;13360;48.152;-1.788;2023-04-01T02:01:07;101626.75;;;12.05;100.00
25430;BME280;13360;48.152;-1.788;2023-04-01T02:03:37;101613.19;;;12.04;100.00
25430;BME280;13360;48.152;-1.788;2023-04-01T02:06:07;101602.41;;;12.02;100.00
25430;BME280;13360;48.152;-1.788;2023-04-01T02:11:02;101592.44;;;12.01;100.00
25430;BME280;13360;48.152;-1.788;2023-04-01T02:13:37;101594.94;;;12.08;100.00
25430;BME280;13360;48.152;-1.788;2023-04-01T02:16:11;101574.44;;;12.04;100.00
25430;BME280;13360;48.152;-1.788;2023-04-01T02:18:38;101569.22;;;11.97;100.00
25430;BME280;13360;48.152;-1.788;2023-04-01T02:21:04;101562.06;;;11.91;100.00
25430;BME280;13360;48.152;-1.788;2023-04-01T02:23:34;101549.38;;;11.80;100.00
25430;BME280;13360;48.152;-1.788;2023-04-01T02:26:01;101575.38;;;11.84;100.00
25430;BME280;13360;48.152;-1.788;2023-04-01T02:28:29;101573.16;;;11.86;100.00
25430;BME280;13360;48.152;-1.788;2023-04-01T02:30:55;101562.66;;;11.83;100.00
25430;BME280;13360;48.152;-1.788;2023-04-01T02:33:23;101570.66;;;11.89;100.00
25430;BME280;13360;48.152;-1.788;2023-04-01T02:35:49;101575.88;;;11.96;100.00
25430;BME280;13360;48.152;-1.788;2023-04-01T02:38:15;101565.66;;;11.92;100.00
25430;BME280;13360;48.152;-1.788;2023-04-01T02:40:49;101575.88;;;11.96;100.00
25430;BME280;13360;48.152;-1.788;2023-04-01T02:43:15;101551.81;;;11.86;100.00
25430;BME280;13360;48.152;-1.788;2023-04-01T02:45:42;101562.06;;;11.86;100.00
25430;BME280;13360;48.152;-1.788;2023-04-01T02:48:07;101561.53;;;11.84;100.00
25430;BME280;13360;48.152;-1.788;2023-04-01T02:50:33;101555.47;;;11.82;100.00
25430;BME280;13360;48.152;-1.788;2023-04-01T02:53:00;101562.06;;;11.86;100.00
25430;BME280;13360;48.152;-1.788;2023-04-01T02:55:25;101557.13;;;11.83;100.00
25430;BME280;13360;48.152;-1.788;2023-04-01T02:57:51;101549.94;;;11.82;100.00
25430;BME280;13360;48.152;-1.788;2023-04-01T03:00:17;101545.22;;;11.82;100.00
25430;BME280;13360;48.152;-1.788;2023-04-01T03:02:42;101550.19;;;11.85;100.00
25430;BME280;13360;48.152;-1.788;2023-04-01T03:05:09;101558.47;;;11.90;100.00
25430;BME280;13360;48.152;-1.788;2023-04-01T03:07:35;101561.53;;;11.89;100.00
25430;BME280;13360;48.152;-1.788;2023-04-01T03:10:00;101563.44;;;11.94;100.00
25430;BME280;13360;48.152;-1.788;2023-04-01T03:12:26;101550.13;;;11.96;100.00
25430;BME280;13360;48.152;-1.788;2023-04-01T03:14:51;101525.56;;;11.84;100.00
25430;BME280;13360;48.152;-1.788;2023-04-01T03:17:16;101525.00;;;11.82;100.00
25430;BME280;13360;48.152;-1.788;2023-04-01T03:19:42;101524.47;;;11.80;100.00
25430;BME280;13360;48.152;-1.788;2023-04-01T03:22:12;101525.31;;;11.80;100.00
25430;BME280;13360;48.152;-1.788;2023-04-01T03:24:37;101520.59;;;11.81;100.00
25430;BME280;13360;48.152;-1.788;2023-04-01T03:27:03;101519.22;;;11.78;100.00
25430;BME280;13360;48.152;-1.788;2023-04-01T03:29:28;101509.53;;;11.76;100.00
25430;BME280;13360;48.152;-1.788;2023-04-01T03:31:53;101517.28;;;11.79;100.00
25430;BME280;13360;48.152;-1.788;2023-04-01T03:34:19;101528.91;;;11.81;100.00
25430;BME280;13360;48.152;-1.788;2023-04-01T03:36:44;101523.66;;;11.79;100.00
25430;BME280;13360;48.152;-1.788;2023-04-01T03:39:10;101527.78;;;11.82;100.00
25430;BME280;13360;48.152;-1.788;2023-04-01T03:41:36;101527.22;;;11.85;100.00
25430;BME280;13360;48.152;-1.788;2023-04-01T03:44:02;101530.25;;;11.83;100.00
25430;BME280;13360;48.152;-1.788;2023-04-01T03:46:28;101532.19;;;11.83;100.00
25430;BME280;13360;48.152;-1.788;2023-04-01T03:48:53;101529.44;;;11.83;100.00
25430;BME280;13360;48.152;-1.788;2023-04-01T03:51:19;101545.22;;;11.82;100.00
25430;BME280;13360;48.152;-1.788;2023-04-01T03:53:44;101553.22;;;11.84;100.00
25430;BME280;13360;48.152;-1.788;2023-04-01T03:56:10;101577.34;;;11.78;100.00
25430;BME280;13360;48.152;-1.788;2023-04-01T03:58:36;101603.66;;;11.71;100.00
25430;BME280;13360;48.152;-1.788;2023-04-01T04:01:02;101646.81;;;11.77;100.00
25430;BME280;13360;48.152;-1.788;2023-04-01T04:03:27;101667.81;;;11.78;100.00
25430;BME280;13360;48.152;-1.788;2023-04-01T04:05:53;101682.81;;;11.72;100.00
25430;BME280;13360;48.152;-1.788;2023-04-01T04:08:18;101703.28;;;11.76;100.00
25430;BME280;13360;48.152;-1.788;2023-04-01T04:10:44;101716.56;;;11.79;100.00
25430;BME280;13360;48.152;-1.788;2023-04-01T04:13:09;101714.88;;;11.78;100.00
25430;BME280;13360;48.152;-1.788;2023-04-01T04:15:34;101731.22;;;11.89;100.00
25430;BME280;13360;48.152;-1.788;2023-04-01T04:18:00;101734.81;;;11.85;100.00
25430;BME280;13360;48.152;-1.788;2023-04-01T04:20:26;101733.69;;;11.86;100.00
25430;BME280;13360;48.152;-1.788;2023-04-01T04:22:51;101733.69;;;11.86;100.00
25430;BME280;13360;48.152;-1.788;2023-04-01T04:25:17;101740.94;;;11.87;100.00
25430;BME280;13360;48.152;-1.788;2023-04-01T04:27:42;101714.34;;;11.71;100.00
25430;BME280;13360;48.152;-1.788;2023-04-01T04:30:08;101724.59;;;11.70;100.00
25430;BME280;13360;48.152;-1.788;2023-04-01T04:32:34;101727.34;;;11.65;100.00
25430;BME280;13360;48.152;-1.788;2023-04-01T04:34:59;101736.53;;;11.55;100.00
25430;BME280;13360;48.152;-1.788;2023-04-01T04:37:25;101740.66;;;11.58;100.00
25430;BME280;13360;48.152;-1.788;2023-04-01T04:39:51;101737.63;;;11.54;100.00
25430;BME280;13360;48.152;-1.788;2023-04-01T04:42:17;101752.56;;;11.69;100.00
25430;BME280;13360;48.152;-1.788;2023-04-01T04:44:43;101749.25;;;11.67;100.00
25430;BME280;13360;48.152;-1.788;2023-04-01T04:47:08;101747.03;;;11.58;100.00
25430;BME280;13360;48.152;-1.788;2023-04-01T04:49:33;101753.66;;;11.57;100.00
25430;BME280;13360;48.152;-1.788;2023-04-01T04:51:59;101743.72;;;11.56;100.00
25430;BME280;13360;48.152;-1.788;2023-04-01T04:54:24;101736.53;;;11.50;100.00
25430;BME280;13360;48.152;-1.788;2023-04-01T04:56:51;101723.78;;;11.54;100.00
25430;BME280;13360;48.152;-1.788;2023-04-01T04:59:17;101736.25;;;11.52;100.00
25430;BME280;13360;48.152;-1.788;2023-04-01T05:01:43;101727.13;;;11.51;100.00
25430;BME280;13360;48.152;-1.788;2023-04-01T05:04:08;101728.25;;;11.45;100.00
25430;BME280;13360;48.152;-1.788;2023-04-01T05:06:33;101743.47;;;11.48;100.00
25430;BME280;13360;48.152;-1.788;2023-04-01T05:08:59;101749.81;;;11.48;100.00
25430;BME280;13360;48.152;-1.788;2023-04-01T05:11:24;101752.03;;;11.41;100.00
25430;BME280;13360;48.152;-1.788;2023-04-01T05:13:51;101755.91;;;11.35;100.00
25430;BME280;13360;48.152;-1.788;2023-04-01T05:16:19;101762.81;;;11.43;100.00
25430;BME280;13360;48.152;-1.788;2023-04-01T05:18:45;101752.03;;;11.36;100.00
25430;BME280;13360;48.152;-1.788;2023-04-01T05:21:13;101750.66;;;11.34;100.00
25430;BME280;13360;48.152;-1.788;2023-04-01T05:23:39;101766.41;;;11.38;100.00
25430;BME280;13360;48.152;-1.788;2023-04-01T05:26:10;101764.75;;;11.42;100.00
25430;BME280;13360;48.152;-1.788;2023-04-01T05:28:36;101757.56;;;11.36;100.00
25430;BME280;13360;48.152;-1.788;2023-04-01T05:31:03;101754.81;;;11.31;100.00
25430;BME280;13360;48.152;-1.788;2023-04-01T05:33:29;101763.91;;;11.37;100.00
25430;BME280;13360;48.152;-1.788;2023-04-01T05:35:56;101754.78;;;11.41;100.00
25430;BME280;13360;48.152;-1.788;2023-04-01T05:38:21;101748.69;;;11.44;100.00
25430;BME280;13360;48.152;-1.788;2023-04-01T05:40:47;101735.97;;;11.43;100.00
25430;BME280;13360;48.152;-1.788;2023-04-01T05:43:12;101717.44;;;11.39;100.00
25430;BME280;13360;48.152;-1.788;2023-04-01T05:45:38;101707.78;;;11.36;100.00
25430;BME280;13360;48.152;-1.788;2023-04-01T05:48:03;101701.69;;;11.39;100.00
25430;BME280;13360;48.152;-1.788;2023-04-01T05:50:29;101690.06;;;11.37;100.00
25430;BME280;13360;48.152;-1.788;2023-04-01T05:52:54;101692.84;;;11.37;100.00
25430;BME280;13360;48.152;-1.788;2023-04-01T05:55:20;101697.25;;;11.38;100.00
25430;BME280;13360;48.152;-1.788;2023-04-01T05:57:46;101690.91;;;11.38;100.00
25430;BME280;13360;48.152;-1.788;2023-04-01T06:00:13;101697.81;;;11.40;100.00
25430;BME280;13360;48.152;-1.788;2023-04-01T06:02:39;101701.13;;;11.42;100.00
25430;BME280;13360;48.152;-1.788;2023-04-01T06:05:22;101693.38;;;11.39;100.00
25430;BME280;13360;48.152;-1.788;2023-04-01T06:07:51;101707.19;;;11.44;100.00
25430;BME280;13360;48.152;-1.788;2023-04-01T06:10:21;101706.13;;;11.45;100.00
25430;BME280;13360;48.152;-1.788;2023-04-01T06:15:23;101686.47;;;11.47;100.00
25430;BME280;13360;48.152;-1.788;2023-04-01T06:20:46;101676.50;;;11.41;100.00
25430;BME280;13360;48.152;-1.788;2023-04-01T06:28:53;101659.34;;;11.44;100.00
25430;BME280;13360;48.152;-1.788;2023-04-01T06:45:28;101649.91;;;11.60;100.00
25430;BME280;13360;48.152;-1.788;2023-04-01T06:48:29;101651.88;;;11.49;100.00
25430;BME280;13360;48.152;-1.788;2023-04-01T06:54:10;101667.31;;;11.60;100.00
25430;BME280;13360;48.152;-1.788;2023-04-01T06:56:41;101668.69;;;11.63;100.00
25430;BME280;13360;48.152;-1.788;2023-04-01T06:59:15;101677.28;;;11.67;100.00
25430;BME280;13360;48.152;-1.788;2023-04-01T07:01:46;101676.72;;;11.65;100.00
25430;BME280;13360;48.152;-1.788;2023-04-01T07:04:17;101693.31;;;11.65;100.00
25430;BME280;13360;48.152;-1.788;2023-04-01T07:06:52;101718.22;;;11.65;100.00
25430;BME280;13360;48.152;-1.788;2023-04-01T07:09:22;101720.47;;;11.68;100.00
25430;BME280;13360;48.152;-1.788;2023-04-01T07:11:50;101731.78;;;11.71;100.00
25430;BME280;13360;48.152;-1.788;2023-04-01T07:14:29;101742.84;;;11.76;100.00
25430;BME280;13360;48.152;-1.788;2023-04-01T07:17:28;101750.88;;;11.83;100.00
25430;BME280;13360;48.152;-1.788;2023-04-01T07:20:17;101753.09;;;11.86;100.00
25430;BME280;13360;48.152;-1.788;2023-04-01T07:22:48;101751.13;;;11.97;100.00
25430;BME280;13360;48.152;-1.788;2023-04-01T07:25:33;101751.38;;;12.00;100.00
25430;BME280;13360;48.152;-1.788;2023-04-01T07:28:05;101753.03;;;12.11;100.00
25430;BME280;13360;48.152;-1.788;2023-04-01T07:31:03;101772.91;;;12.24;100.00
25430;BME280;13360;48.152;-1.788;2023-04-01T07:33:49;101749.66;;;12.19;100.00
25430;BME280;13360;48.152;-1.788;2023-04-01T07:36:36;101713.13;;;12.07;100.00
25430;BME280;13360;48.152;-1.788;2023-04-01T07:42:05;101742.44;;;12.29;100.00
25430;BME280;13360;48.152;-1.788;2023-04-01T07:47:21;101741.22;;;12.50;100.00
25430;BME280;13360;48.152;-1.788;2023-04-01T07:50:22;101738.63;;;12.64;100.00
25430;BME280;13360;48.152;-1.788;2023-04-01T07:55:48;101734.47;;;13.05;100.00
25430;BME280;13360;48.152;-1.788;2023-04-01T07:58:51;101703.28;;;13.24;100.00
25430;BME280;13360;48.152;-1.788;2023-04-01T08:01:50;101659.28;;;13.07;100.00
25430;BME280;13360;48.152;-1.788;2023-04-01T08:07:17;101606.66;;;13.02;100.00
25430;BME280;13360;48.152;-1.788;2023-04-01T08:09:59;101601.34;;;13.05;100.00
25430;BME280;13360;48.152;-1.788;2023-04-01T08:13:10;101591.78;;;13.22;100.00
25430;BME280;13360;48.152;-1.788;2023-04-01T08:15:57;101589.19;;;13.30;100.00
25430;BME280;13360;48.152;-1.788;2023-04-01T08:18:40;101567.50;;;13.32;100.00
25430;BME280;13360;48.152;-1.788;2023-04-01T08:21:31;101547.81;;;13.34;100.00
25430;BME280;13360;48.152;-1.788;2023-04-01T08:24:10;101530.34;;;13.33;100.00
25430;BME280;13360;48.152;-1.788;2023-04-01T08:26:44;101536.94;;;13.37;100.00
25430;BME280;13360;48.152;-1.788;2023-04-01T08:29:22;101515.50;;;13.43;100.00
25430;BME280;13360;48.152;-1.788;2023-04-01T08:34:28;101488.06;;;13.41;100.00
25430;BME280;13360;48.152;-1.788;2023-04-01T08:37:03;101507.03;;;13.53;100.00
25430;BME280;13360;48.152;-1.788;2023-04-01T08:39:43;101502.38;;;13.49;100.00
25430;BME280;13360;48.152;-1.788;2023-04-01T08:45:18;101525.91;;;13.75;100.00
25430;BME280;13360;48.152;-1.788;2023-04-01T08:48:05;101487.09;;;13.89;100.00
25430;BME280;13360;48.152;-1.788;2023-04-01T08:56:18;101447.69;;;14.84;100.00
25430;BME280;13360;48.152;-1.788;2023-04-01T09:08:05;101281.53;;;14.08;100.00
25430;BME280;13360;48.152;-1.788;2023-04-01T09:13:25;101268.44;;;13.94;100.00
25430;BME280;13360;48.152;-1.788;2023-04-01T09:16:03;101246.63;;;13.74;100.00
25430;BME280;13360;48.152;-1.788;2023-04-01T09:18:53;101261.56;;;13.78;100.00
25430;BME280;13360;48.152;-1.788;2023-04-01T09:24:40;101268.25;;;13.77;100.00
25430;BME280;13360;48.152;-1.788;2023-04-01T09:27:16;101269.88;;;13.78;100.00
25430;BME280;13360;48.152;-1.788;2023-04-01T09:41:32;101385.22;;;13.70;100.00
25430;BME280;13360;48.152;-1.788;2023-04-01T09:44:13;101478.00;;;14.53;100.00
25430;BME280;13360;48.152;-1.788;2023-04-01T09:55:21;101379.41;;;14.18;100.00
25430;BME280;13360;48.152;-1.788;2023-04-01T10:03:51;101469.94;;;14.84;100.00
25430;BME280;13360;48.152;-1.788;2023-04-01T10:15:16;101307.38;;;16.16;100.00
25430;BME280;13360;48.152;-1.788;2023-04-01T10:18:03;101221.28;;;15.75;100.00
25430;BME280;13360;48.152;-1.788;2023-04-01T10:28:53;101076.53;;;14.90;100.00
25430;BME280;13360;48.152;-1.788;2023-04-01T10:34:41;101160.13;;;15.39;100.00
25430;BME280;13360;48.152;-1.788;2023-04-01T10:37:28;101189.22;;;15.55;100.00
25430;BME280;13360;48.152;-1.788;2023-04-01T10:40:12;101158.38;;;15.43;100.00
25430;BME280;13360;48.152;-1.788;2023-04-01T11:00:22;101008.69;;;15.40;100.00
25430;BME280;13360;48.152;-1.788;2023-04-01T11:08:54;100999.97;;;15.72;100.00
25430;BME280;13360;48.152;-1.788;2023-04-01T11:12:00;100972.84;;;15.38;100.00
25430;BME280;13360;48.152;-1.788;2023-04-01T11:14:50;100984.41;;;14.83;100.00
25430;BME280;13360;48.152;-1.788;2023-04-01T11:17:32;101074.53;;;14.82;100.00
25430;BME280;13360;48.152;-1.788;2023-04-01T11:23:26;101199.63;;;14.60;100.00
25430;BME280;13360;48.152;-1.788;2023-04-01T11:34:17;101339.44;;;14.47;100.00
25430;BME280;13360;48.152;-1.788;2023-04-01T11:39:29;101446.66;;;14.94;100.00
25430;BME280;13360;48.152;-1.788;2023-04-01T11:44:33;101471.59;;;15.27;100.00
25430;BME280;13360;48.152;-1.788;2023-04-01T11:47:27;101484.75;;;15.35;100.00
25430;BME280;13360;48.152;-1.788;2023-04-01T11:53:10;101522.69;;;15.58;100.00
25430;BME280;13360;48.152;-1.788;2023-04-01T12:01:41;101541.66;;;15.56;100.00
25430;BME280;13360;48.152;-1.788;2023-04-01T12:07:27;101559.84;;;15.67;100.00
25430;BME280;13360;48.152;-1.788;2023-04-01T12:26:24;101390.94;;;15.35;100.00
25430;BME280;13360;48.152;-1.788;2023-04-01T12:31:56;101271.19;;;15.04;100.00
25430;BME280;13360;48.152;-1.788;2023-04-01T12:37:21;101164.06;;;14.71;100.00
25430;BME280;13360;48.152;-1.788;2023-04-01T12:45:33;101223.13;;;15.12;100.00
25430;BME280;13360;48.152;-1.788;2023-04-01T13:04:56;101159.97;;;14.90;100.00
25430;BME280;13360;48.152;-1.788;2023-04-01T13:07:46;101156.09;;;14.78;100.00
25430;BME280;13360;48.152;-1.788;2023-04-01T13:29:28;101224.75;;;14.91;100.00
25430;BME280;13360;48.152;-1.788;2023-04-01T13:42:26;101322.94;;;15.28;100.00
25430;BME280;13360;48.152;-1.788;2023-04-01T13:45:15;101348.59;;;15.02;100.00
25430;BME280;13360;48.152;-1.788;2023-04-01T13:50:37;101376.59;;;14.92;100.00
25430;BME280;13360;48.152;-1.788;2023-04-01T14:01:59;101369.69;;;15.39;100.00
25430;BME280;13360;48.152;-1.788;2023-04-01T14:04:42;101297.91;;;15.28;100.00
25430;BME280;13360;48.152;-1.788;2023-04-01T14:10:17;101250.06;;;15.03;100.00
25430;BME280;13360;48.152;-1.788;2023-04-01T14:13:14;101242.88;;;15.02;100.00
25430;BME280;13360;48.152;-1.788;2023-04-01T14:16:14;101259.13;;;15.09;100.00
25430;BME280;13360;48.152;-1.788;2023-04-01T14:21:46;101280.41;;;14.77;100.00
25430;BME280;13360;48.152;-1.788;2023-04-01T14:32:07;101484.06;;;15.15;100.00
25430;BME280;13360;48.152;-1.788;2023-04-01T14:40:20;101538.78;;;15.06;100.00
25430;BME280;13360;48.152;-1.788;2023-04-01T14:48:17;101599.84;;;14.98;100.00
25430;BME280;13360;48.152;-1.788;2023-04-01T14:50:49;101594.59;;;14.96;100.00
25430;BME280;13360;48.152;-1.788;2023-04-01T14:53:27;101613.34;;;14.90;100.00
25430;BME280;13360;48.152;-1.788;2023-04-01T14:55:58;101552.34;;;14.80;100.00
25430;BME280;13360;48.152;-1.788;2023-04-01T14:58:39;101475.69;;;14.60;100.00
25430;BME280;13360;48.152;-1.788;2023-04-01T15:17:28;101283.31;;;14.72;100.00
25430;BME280;13360;48.152;-1.788;2023-04-01T15:23:09;101240.81;;;14.58;100.00
25430;BME280;13360;48.152;-1.788;2023-04-01T15:25:51;101228.16;;;14.52;100.00
25430;BME280;13360;48.152;-1.788;2023-04-01T15:36:31;101203.13;;;14.66;100.00
25430;BME280;13360;48.152;-1.788;2023-04-01T15:39:10;101185.63;;;14.65;100.00
25430;BME280;13360;48.152;-1.788;2023-04-01T15:47:01;101166.88;;;14.93;100.00
25430;BME280;13360;48.152;-1.788;2023-04-01T16:03:19;101100.75;;;14.90;100.00
25430;BME280;13360;48.152;-1.788;2023-04-01T16:11:37;101094.81;;;14.83;100.00
25430;BME280;13360;48.152;-1.788;2023-04-01T16:17:12;101108.72;;;14.83;100.00
25430;BME280;13360;48.152;-1.788;2023-04-01T16:20:00;101114.66;;;14.90;100.00
25430;BME280;13360;48.152;-1.788;2023-04-01T16:30:55;101073.91;;;14.63;100.00
25430;BME280;13360;48.152;-1.788;2023-04-01T16:33:47;101082.63;;;14.70;100.00
25430;BME280;13360;48.152;-1.788;2023-04-01T16:36:50;101083.13;;;14.72;100.00
25430;BME280;13360;48.152;-1.788;2023-04-01T16:39:37;101107.50;;;14.75;100.00
25430;BME280;13360;48.152;-1.788;2023-04-01T16:47:18;101091.13;;;14.74;100.00
25430;BME280;13360;48.152;-1.788;2023-04-01T16:55:16;101092.53;;;14.62;100.00
25430;BME280;13360;48.152;-1.788;2023-04-01T16:57:56;101113.78;;;14.58;100.00
25430;BME280;13360;48.152;-1.788;2023-04-01T17:00:28;101103.75;;;14.57;100.00
25430;BME280;13360;48.152;-1.788;2023-04-01T17:05:42;101107.22;;;14.41;100.00
25430;BME280;13360;48.152;-1.788;2023-04-01T17:10:53;101153.94;;;14.39;100.00
25430;BME280;13360;48.152;-1.788;2023-04-01T17:13:45;101172.41;;;14.21;100.00
25430;BME280;13360;48.152;-1.788;2023-04-01T17:19:13;101177.44;;;14.19;100.00
25430;BME280;13360;48.152;-1.788;2023-04-01T17:21:47;101193.59;;;14.17;100.00
25430;BME280;13360;48.152;-1.788;2023-04-01T17:26:52;101199.56;;;13.96;100.00
25430;BME280;13360;48.152;-1.788;2023-04-01T17:32:15;101212.09;;;13.80;100.00
25430;BME280;13360;48.152;-1.788;2023-04-01T17:34:55;101245.53;;;14.02;100.00
25430;BME280;13360;48.152;-1.788;2023-04-01T17:37:44;101256.66;;;14.02;100.00
25430;BME280;13360;48.152;-1.788;2023-04-01T17:45:45;101291.31;;;14.05;100.00
25430;BME280;13360;48.152;-1.788;2023-04-01T17:48:21;101290.50;;;14.04;100.00
25430;BME280;13360;48.152;-1.788;2023-04-01T17:56:17;101299.97;;;14.03;100.00
25430;BME280;13360;48.152;-1.788;2023-04-01T17:59:03;101318.38;;;13.99;100.00
25430;BME280;13360;48.152;-1.788;2023-04-01T18:04:28;101332.06;;;14.10;100.00
25430;BME280;13360;48.152;-1.788;2023-04-01T18:21:50;101431.25;;;13.90;100.00
25430;BME280;13360;48.152;-1.788;2023-04-01T18:24:36;101439.78;;;13.80;100.00
25430;BME280;13360;48.152;-1.788;2023-04-01T18:30:02;101452.00;;;13.79;100.00
25430;BME280;13360;48.152;-1.788;2023-04-01T18:32:47;101458.28;;;13.85;100.00
25430;BME280;13360;48.152;-1.788;2023-04-01T18:35:21;101465.81;;;13.84;100.00
25430;BME280;13360;48.152;-1.788;2023-04-01T18:37:54;101473.69;;;13.77;100.00
25430;BME280;13360;48.152;-1.788;2023-04-01T18:43:33;101473.09;;;13.61;100.00
25430;BME280;13360;48.152;-1.788;2023-04-01T18:46:30;101475.00;;;13.42;100.00
25430;BME280;13360;48.152;-1.788;2023-04-01T18:55:29;101512.13;;;13.46;100.00
25430;BME280;13360;48.152;-1.788;2023-04-01T19:00:49;101537.28;;;13.55;100.00
25430;BME280;13360;48.152;-1.788;2023-04-01T19:05:53;101548.09;;;13.56;100.00
25430;BME280;13360;48.152;-1.788;2023-04-01T19:08:33;101558.06;;;13.57;100.00
25430;BME280;13360;48.152;-1.788;2023-04-01T19:13:51;101574.13;;;13.60;100.00
25430;BME280;13360;48.152;-1.788;2023-04-01T19:16:33;101591.38;;;13.57;100.00
25430;BME280;13360;48.152;-1.788;2023-04-01T19:32:48;101649.44;;;13.54;100.00
25430;BME280;13360;48.152;-1.788;2023-04-01T19:38:08;101680.00;;;13.49;100.00
25430;BME280;13360;48.152;-1.788;2023-04-01T19:43:54;101707.22;;;13.47;100.00
25430;BME280;13360;48.152;-1.788;2023-04-01T19:52:00;101741.94;;;13.44;100.00
25430;BME280;13360;48.152;-1.788;2023-04-01T19:54:43;101753.03;;;13.44;100.00
25430;BME280;13360;48.152;-1.788;2023-04-01T20:17:11;101857.78;;;13.28;100.00
25430;BME280;13360;48.152;-1.788;2023-04-01T20:22:36;101881.63;;;13.34;100.00
25430;BME280;13360;48.152;-1.788;2023-04-01T20:25:30;101884.94;;;13.36;100.00
25430;BME280;13360;48.152;-1.788;2023-04-01T20:37:21;101917.97;;;13.33;100.00
25430;BME280;13360;48.152;-1.788;2023-04-01T20:42:57;101940.50;;;13.21;100.00
25430;BME280;13360;48.152;-1.788;2023-04-01T20:53:29;101980.94;;;13.32;100.00
25430;BME280;13360;48.152;-1.788;2023-04-01T20:56:27;101990.66;;;13.30;100.00
25430;BME280;13360;48.152;-1.788;2023-04-01T21:07:17;102102.22;;;13.27;100.00
25430;BME280;13360;48.152;-1.788;2023-04-01T21:09:53;102142.19;;;13.26;100.00
25430;BME280;13360;48.152;-1.788;2023-04-01T21:15:34;102193.25;;;13.15;100.00
25430;BME280;13360;48.152;-1.788;2023-04-01T21:18:25;102225.16;;;13.17;100.00
25430;BME280;13360;48.152;-1.788;2023-04-01T21:23:53;102273.16;;;13.18;100.00
25430;BME280;13360;48.152;-1.788;2023-04-01T21:26:55;102287.59;;;13.20;100.00
25430;BME280;13360;48.152;-1.788;2023-04-01T21:29:48;102305.06;;;13.20;100.00
25430;BME280;13360;48.152;-1.788;2023-04-01T21:32:19;102324.19;;;13.17;100.00
25430;BME280;13360;48.152;-1.788;2023-04-01T21:35:00;102349.44;;;13.15;100.00
25430;BME280;13360;48.152;-1.788;2023-04-01T21:51:43;102469.41;;;12.80;100.00
25430;BME280;13360;48.152;-1.788;2023-04-01T22:08:44;102580.16;;;12.97;100.00